Flugplatz Memmingen Allgau

Bericht für EDJA

vom 30.09. um 22:20 UTC

Wind 4 kt aus 230°

Sichtweite 5000 m

aufgebrochene Bewölkung in 5100 ft

Temperatur 5.0°C

Taupunkt 5.0°C

Luftfeuchtigkeit 100%

Luftdruck 1015 hPa

EDJA 302220Z AUTO 23004KT 200V260 5000 // BKN051/// 05/05 Q1015

Prognose für EDJA

vom 30.09. um 17:00 UTC

Am 30.09. zwischen 18:00 UTC und 03:00 UTC

Wind 4 kt aus 200°

Sichtweite 10 km oder mehr

aufgebrochene Bewölkung in 1500 ft


Am 30.09. zwischen 21:00 UTC und 03:00 UTC zeitweise

Sichtweite 2000 m

Nebelschwaden

TAF EDJA 301700Z 3018/0103 20004KT 9999 BKN015 TEMPO 3021/0103 2000 BCFG
Impressum